Cambridge, Minnesota
Current Conditions -  °F | °C
As of 12:15 PM on Friday 19 Dec 2014 (Local Time) from KCBG Reporting Station
Overcast Overcast  
Wind Chill: 20°   Ceiling: 1300
Heat Index: 27°   Visibility: 7mi
Dew Point: 19°   Wind: 6mph
Humidity: 74%   Direction: 140°SE
Pressure: 30.19"   Gusts: NA
Location:  45.57°N, 93.22°W
Report Text: KCBG 191815Z AUTO 14005KT 7SM OVC013 M03/M07 A3019 RMK AO2
Loading
Personal Weather Stations






























Interactive Weather Map New forecast layout! Learn more

10-Day Weather Forecast

Advertisements
Track Severe Weather on mobile